sensor_id;sensor_type;location;lat;lon;timestamp;pressure;altitude;pressure_sealevel;temperature;humidity
74329;BME280;62749;51.982;5.916;2023-07-02T00:02:24;100414.00;;;18.49;77.97
74329;BME280;62749;51.982;5.916;2023-07-02T00:04:54;100422.59;;;18.52;78.15
74329;BME280;62749;51.982;5.916;2023-07-02T00:07:23;100418.63;;;18.47;79.09
74329;BME280;62749;51.982;5.916;2023-07-02T00:09:53;100422.03;;;18.37;78.72
74329;BME280;62749;51.982;5.916;2023-07-02T00:12:22;100420.34;;;18.25;79.04
74329;BME280;62749;51.982;5.916;2023-07-02T00:14:52;100414.88;;;18.27;79.49
74329;BME280;62749;51.982;5.916;2023-07-02T00:17:24;100409.91;;;18.22;79.33
74329;BME280;62749;51.982;5.916;2023-07-02T00:19:53;100413.41;;;18.22;79.64
74329;BME280;62749;51.982;5.916;2023-07-02T00:22:22;100408.69;;;18.26;79.33
74329;BME280;62749;51.982;5.916;2023-07-02T00:24:52;100407.84;;;18.25;79.66
74329;BME280;62749;51.982;5.916;2023-07-02T00:27:22;100406.72;;;18.28;79.20
74329;BME280;62749;51.982;5.916;2023-07-02T00:29:51;100401.72;;;18.35;78.81
74329;BME280;62749;51.982;5.916;2023-07-02T00:32:20;100405.75;;;18.29;78.65
74329;BME280;62749;51.982;5.916;2023-07-02T00:34:52;100406.13;;;18.24;78.60
74329;BME280;62749;51.982;5.916;2023-07-02T00:37:22;100402.25;;;18.17;79.01
74329;BME280;62749;51.982;5.916;2023-07-02T00:39:51;100404.06;;;18.17;79.13
74329;BME280;62749;51.982;5.916;2023-07-02T00:42:21;100405.53;;;18.21;79.38
74329;BME280;62749;51.982;5.916;2023-07-02T00:44:52;100413.19;;;18.25;79.59
74329;BME280;62749;51.982;5.916;2023-07-02T00:47:23;100430.06;;;18.15;83.29
74329;BME280;62749;51.982;5.916;2023-07-02T00:49:55;100451.31;;;17.93;83.20
74329;BME280;62749;51.982;5.916;2023-07-02T00:52:43;100450.19;;;17.62;80.07
74329;BME280;62749;51.982;5.916;2023-07-02T00:55:13;100459.41;;;17.58;80.45
74329;BME280;62749;51.982;5.916;2023-07-02T00:57:42;100462.44;;;17.53;80.61
74329;BME280;62749;51.982;5.916;2023-07-02T01:00:13;100470.88;;;17.47;78.48
74329;BME280;62749;51.982;5.916;2023-07-02T01:02:42;100472.31;;;17.28;78.58
74329;BME280;62749;51.982;5.916;2023-07-02T01:05:18;100468.91;;;17.02;77.61
74329;BME280;62749;51.982;5.916;2023-07-02T01:07:48;100469.38;;;16.83;79.11
74329;BME280;62749;51.982;5.916;2023-07-02T01:10:18;100460.97;;;16.76;78.82
74329;BME280;62749;51.982;5.916;2023-07-02T01:12:48;100466.03;;;16.68;78.48
74329;BME280;62749;51.982;5.916;2023-07-02T01:15:18;100468.22;;;16.74;79.40
74329;BME280;62749;51.982;5.916;2023-07-02T01:17:48;100466.03;;;16.68;79.96
74329;BME280;62749;51.982;5.916;2023-07-02T01:20:22;100465.69;;;16.72;80.55
74329;BME280;62749;51.982;5.916;2023-07-02T01:22:51;100468.47;;;16.71;79.36
74329;BME280;62749;51.982;5.916;2023-07-02T01:25:21;100465.56;;;16.74;79.08
74329;BME280;62749;51.982;5.916;2023-07-02T01:27:51;100469.09;;;16.75;80.36
74329;BME280;62749;51.982;5.916;2023-07-02T01:30:21;100463.16;;;16.71;80.50
74329;BME280;62749;51.982;5.916;2023-07-02T01:33:01;100471.25;;;16.69;79.85
74329;BME280;62749;51.982;5.916;2023-07-02T01:35:32;100479.78;;;16.75;80.64
74329;BME280;62749;51.982;5.916;2023-07-02T01:38:02;100483.50;;;16.72;80.06
74329;BME280;62749;51.982;5.916;2023-07-02T01:40:31;100476.69;;;16.68;80.76
74329;BME280;62749;51.982;5.916;2023-07-02T01:43:01;100477.03;;;16.63;80.55
74329;BME280;62749;51.982;5.916;2023-07-02T01:45:30;100478.09;;;16.61;81.73
74329;BME280;62749;51.982;5.916;2023-07-02T01:47:59;100476.91;;;16.65;81.22
74329;BME280;62749;51.982;5.916;2023-07-02T01:50:29;100486.97;;;16.61;80.74
74329;BME280;62749;51.982;5.916;2023-07-02T01:53:01;100485.75;;;16.65;81.11
74329;BME280;62749;51.982;5.916;2023-07-02T01:55:30;100486.41;;;16.69;80.36
74329;BME280;62749;51.982;5.916;2023-07-02T01:57:59;100492.28;;;16.61;80.45
74329;BME280;62749;51.982;5.916;2023-07-02T02:00:38;100498.19;;;16.53;80.44
74329;BME280;62749;51.982;5.916;2023-07-02T02:03:07;100493.50;;;16.44;81.77
74329;BME280;62749;51.982;5.916;2023-07-02T02:05:36;100486.22;;;16.46;80.61
74329;BME280;62749;51.982;5.916;2023-07-02T02:08:08;100485.19;;;16.36;81.24
74329;BME280;62749;51.982;5.916;2023-07-02T02:10:38;100491.47;;;16.35;80.56
74329;BME280;62749;51.982;5.916;2023-07-02T02:13:07;100495.56;;;16.28;80.76
74329;BME280;62749;51.982;5.916;2023-07-02T02:15:36;100488.53;;;16.26;79.43
74329;BME280;62749;51.982;5.916;2023-07-02T02:18:07;100495.75;;;16.24;80.24
74329;BME280;62749;51.982;5.916;2023-07-02T02:20:36;100498.00;;;16.18;80.21
74329;BME280;62749;51.982;5.916;2023-07-02T02:23:08;100494.09;;;16.10;80.74
74329;BME280;62749;51.982;5.916;2023-07-02T02:25:38;100503.53;;;16.15;81.40
74329;BME280;62749;51.982;5.916;2023-07-02T02:28:07;100510.16;;;16.09;81.70
74329;BME280;62749;51.982;5.916;2023-07-02T02:30:36;100508.16;;;16.13;80.75
74329;BME280;62749;51.982;5.916;2023-07-02T02:33:06;100512.09;;;16.07;81.74
74329;BME280;62749;51.982;5.916;2023-07-02T02:35:40;100504.00;;;16.08;81.17
74329;BME280;62749;51.982;5.916;2023-07-02T02:38:12;100503.03;;;15.97;82.46
74329;BME280;62749;51.982;5.916;2023-07-02T02:40:41;100496.00;;;15.95;82.62
74329;BME280;62749;51.982;5.916;2023-07-02T02:43:11;100499.59;;;15.94;81.84
74329;BME280;62749;51.982;5.916;2023-07-02T02:45:43;100499.09;;;15.89;82.46
74329;BME280;62749;51.982;5.916;2023-07-02T02:48:12;100498.34;;;15.87;82.50
74329;BME280;62749;51.982;5.916;2023-07-02T02:50:42;100498.88;;;15.92;82.49
74329;BME280;62749;51.982;5.916;2023-07-02T02:53:14;100508.25;;;15.85;82.86
74329;BME280;62749;51.982;5.916;2023-07-02T02:55:43;100503.53;;;15.76;82.82
74329;BME280;62749;51.982;5.916;2023-07-02T02:58:12;100509.13;;;15.86;83.22
74329;BME280;62749;51.982;5.916;2023-07-02T03:01:01;100515.69;;;15.80;83.32
74329;BME280;62749;51.982;5.916;2023-07-02T03:03:38;100511.09;;;15.69;83.59
74329;BME280;62749;51.982;5.916;2023-07-02T03:06:12;100515.97;;;15.75;83.96
74329;BME280;62749;51.982;5.916;2023-07-02T03:08:44;100524.31;;;15.84;83.42
74329;BME280;62749;51.982;5.916;2023-07-02T03:11:14;100528.88;;;15.82;83.49
74329;BME280;62749;51.982;5.916;2023-07-02T03:13:43;100518.97;;;15.84;83.94
74329;BME280;62749;51.982;5.916;2023-07-02T03:16:12;100528.75;;;15.83;84.55
74329;BME280;62749;51.982;5.916;2023-07-02T03:18:42;100532.75;;;15.90;83.71
74329;BME280;62749;51.982;5.916;2023-07-02T03:21:11;100533.94;;;15.86;85.19
74329;BME280;62749;51.982;5.916;2023-07-02T03:23:40;100535.94;;;15.95;84.24
74329;BME280;62749;51.982;5.916;2023-07-02T03:26:13;100534.25;;;15.94;83.09
74329;BME280;62749;51.982;5.916;2023-07-02T03:28:42;100537.34;;;15.88;82.77
74329;BME280;62749;51.982;5.916;2023-07-02T03:31:34;100547.78;;;15.91;83.13
74329;BME280;62749;51.982;5.916;2023-07-02T03:34:06;100547.78;;;15.91;82.48
74329;BME280;62749;51.982;5.916;2023-07-02T03:36:35;100549.13;;;15.84;82.59
74329;BME280;62749;51.982;5.916;2023-07-02T03:39:05;100545.91;;;15.66;83.27
74329;BME280;62749;51.982;5.916;2023-07-02T03:41:37;100547.19;;;15.73;82.94
74329;BME280;62749;51.982;5.916;2023-07-02T03:44:06;100544.75;;;15.70;82.41
74329;BME280;62749;51.982;5.916;2023-07-02T03:46:35;100542.09;;;15.70;83.99
74329;BME280;62749;51.982;5.916;2023-07-02T03:49:05;100546.34;;;15.73;83.27
74329;BME280;62749;51.982;5.916;2023-07-02T03:51:34;100546.34;;;15.73;83.25
74329;BME280;62749;51.982;5.916;2023-07-02T03:54:05;100550.94;;;15.84;82.59
74329;BME280;62749;51.982;5.916;2023-07-02T03:56:36;100560.00;;;15.81;82.59
74329;BME280;62749;51.982;5.916;2023-07-02T03:59:06;100556.28;;;15.84;82.61
74329;BME280;62749;51.982;5.916;2023-07-02T04:01:54;100555.22;;;15.86;82.01
74329;BME280;62749;51.982;5.916;2023-07-02T04:04:23;100560.47;;;15.88;82.59
74329;BME280;62749;51.982;5.916;2023-07-02T04:06:53;100565.47;;;15.92;81.91
74329;BME280;62749;51.982;5.916;2023-07-02T04:09:22;100561.09;;;15.91;81.63
74329;BME280;62749;51.982;5.916;2023-07-02T04:11:54;100572.41;;;15.95;81.27
74329;BME280;62749;51.982;5.916;2023-07-02T04:14:23;100576.66;;;15.98;80.32
74329;BME280;62749;51.982;5.916;2023-07-02T04:16:53;100574.81;;;15.85;81.50
74329;BME280;62749;51.982;5.916;2023-07-02T04:19:22;100571.75;;;15.91;81.20
74329;BME280;62749;51.982;5.916;2023-07-02T04:21:51;100571.31;;;15.98;81.01
74329;BME280;62749;51.982;5.916;2023-07-02T04:24:21;100570.28;;;16.00;80.30
74329;BME280;62749;51.982;5.916;2023-07-02T04:26:54;100572.84;;;16.02;80.54
74329;BME280;62749;51.982;5.916;2023-07-02T04:29:23;100568.59;;;15.99;80.77
74329;BME280;62749;51.982;5.916;2023-07-02T04:32:06;100578.91;;;16.04;80.04
74329;BME280;62749;51.982;5.916;2023-07-02T04:34:35;100567.75;;;16.12;79.04
74329;BME280;62749;51.982;5.916;2023-07-02T04:37:05;100575.50;;;16.02;79.83
74329;BME280;62749;51.982;5.916;2023-07-02T04:39:35;100587.22;;;16.12;78.63
74329;BME280;62749;51.982;5.916;2023-07-02T04:42:07;100582.84;;;16.11;77.75
74329;BME280;62749;51.982;5.916;2023-07-02T04:44:36;100584.25;;;16.04;78.13
74329;BME280;62749;51.982;5.916;2023-07-02T04:47:06;100590.22;;;16.07;77.47
74329;BME280;62749;51.982;5.916;2023-07-02T04:49:35;100592.25;;;16.04;77.69
74329;BME280;62749;51.982;5.916;2023-07-02T04:52:05;100579.13;;;16.01;78.32
74329;BME280;62749;51.982;5.916;2023-07-02T04:54:35;100593.44;;;16.13;76.90
74329;BME280;62749;51.982;5.916;2023-07-02T04:57:06;100587.97;;;16.14;75.86
74329;BME280;62749;51.982;5.916;2023-07-02T04:59:39;100594.16;;;16.15;76.06
74329;BME280;62749;51.982;5.916;2023-07-02T05:02:08;100588.41;;;16.21;76.06
74329;BME280;62749;51.982;5.916;2023-07-02T05:04:38;100589.91;;;16.25;76.28
74329;BME280;62749;51.982;5.916;2023-07-02T05:07:07;100598.53;;;16.29;75.54
74329;BME280;62749;51.982;5.916;2023-07-02T05:09:36;100606.97;;;16.35;73.82
74329;BME280;62749;51.982;5.916;2023-07-02T05:12:09;100604.19;;;16.37;74.32
74329;BME280;62749;51.982;5.916;2023-07-02T05:14:38;100613.78;;;16.39;73.87
74329;BME280;62749;51.982;5.916;2023-07-02T05:17:08;100609.19;;;16.41;73.37
74329;BME280;62749;51.982;5.916;2023-07-02T05:19:37;100604.19;;;16.37;74.00
74329;BME280;62749;51.982;5.916;2023-07-02T05:22:07;100609.84;;;16.45;72.76
74329;BME280;62749;51.982;5.916;2023-07-02T05:24:36;100606.94;;;16.48;72.01
74329;BME280;62749;51.982;5.916;2023-07-02T05:27:09;100613.25;;;16.47;72.18
74329;BME280;62749;51.982;5.916;2023-07-02T05:29:39;100613.66;;;16.54;72.08
74329;BME280;62749;51.982;5.916;2023-07-02T05:32:08;100618.16;;;16.53;71.62
74329;BME280;62749;51.982;5.916;2023-07-02T05:34:38;100617.09;;;16.56;71.11
74329;BME280;62749;51.982;5.916;2023-07-02T05:37:07;100618.13;;;16.66;70.67
74329;BME280;62749;51.982;5.916;2023-07-02T05:39:36;100618.69;;;16.59;69.29
74329;BME280;62749;51.982;5.916;2023-07-02T05:42:06;100615.16;;;16.58;70.34
74329;BME280;62749;51.982;5.916;2023-07-02T05:44:38;100636.81;;;16.53;70.42
74329;BME280;62749;51.982;5.916;2023-07-02T05:47:07;100624.03;;;16.59;70.11
74329;BME280;62749;51.982;5.916;2023-07-02T05:49:36;100619.75;;;16.69;70.21
74329;BME280;62749;51.982;5.916;2023-07-02T05:52:06;100630.72;;;16.77;69.30
74329;BME280;62749;51.982;5.916;2023-07-02T05:54:39;100629.75;;;16.78;68.39
74329;BME280;62749;51.982;5.916;2023-07-02T05:57:08;100636.69;;;16.81;67.81
74329;BME280;62749;51.982;5.916;2023-07-02T05:59:40;100632.53;;;16.90;68.11
74329;BME280;62749;51.982;5.916;2023-07-02T06:02:09;100634.00;;;16.94;68.03
74329;BME280;62749;51.982;5.916;2023-07-02T06:04:38;100647.19;;;16.97;68.24
74329;BME280;62749;51.982;5.916;2023-07-02T06:07:08;100639.03;;;16.85;67.28
74329;BME280;62749;51.982;5.916;2023-07-02T06:09:37;100654.94;;;16.87;67.64
74329;BME280;62749;51.982;5.916;2023-07-02T06:12:07;100643.41;;;16.86;66.90
74329;BME280;62749;51.982;5.916;2023-07-02T06:14:39;100642.81;;;16.96;67.31
74329;BME280;62749;51.982;5.916;2023-07-02T06:17:09;100645.66;;;16.93;66.16
74329;BME280;62749;51.982;5.916;2023-07-02T06:22:26;100659.19;;;16.90;66.68
74329;BME280;62749;51.982;5.916;2023-07-02T06:24:55;100650.81;;;16.96;67.95
74329;BME280;62749;51.982;5.916;2023-07-02T06:27:25;100656.44;;;17.04;65.57
74329;BME280;62749;51.982;5.916;2023-07-02T06:29:56;100658.78;;;17.09;65.97
74329;BME280;62749;51.982;5.916;2023-07-02T06:32:26;100654.84;;;17.01;66.36
74329;BME280;62749;51.982;5.916;2023-07-02T06:34:55;100654.19;;;17.11;65.59
74329;BME280;62749;51.982;5.916;2023-07-02T06:37:24;100666.03;;;17.20;65.40
74329;BME280;62749;51.982;5.916;2023-07-02T06:40:04;100680.66;;;17.14;64.23
74329;BME280;62749;51.982;5.916;2023-07-02T06:42:33;100672.66;;;17.14;63.92
74329;BME280;62749;51.982;5.916;2023-07-02T06:45:07;100671.78;;;17.13;64.08
74329;BME280;62749;51.982;5.916;2023-07-02T06:47:36;100683.50;;;17.24;64.48
74329;BME280;62749;51.982;5.916;2023-07-02T06:50:06;100682.44;;;17.26;62.66
74329;BME280;62749;51.982;5.916;2023-07-02T06:52:36;100683.75;;;17.21;63.52
74329;BME280;62749;51.982;5.916;2023-07-02T06:55:05;100686.38;;;17.33;64.02
74329;BME280;62749;51.982;5.916;2023-07-02T06:57:35;100681.09;;;17.45;62.93
74329;BME280;62749;51.982;5.916;2023-07-02T07:00:08;100692.13;;;17.40;64.02
74329;BME280;62749;51.982;5.916;2023-07-02T07:03:02;100705.44;;;17.53;63.30
74329;BME280;62749;51.982;5.916;2023-07-02T07:05:32;100702.94;;;17.63;62.91
74329;BME280;62749;51.982;5.916;2023-07-02T07:08:01;100709.53;;;17.70;63.33
74329;BME280;62749;51.982;5.916;2023-07-02T07:10:31;100704.69;;;17.75;61.21
74329;BME280;62749;51.982;5.916;2023-07-02T07:13:01;100713.06;;;17.71;61.14
74329;BME280;62749;51.982;5.916;2023-07-02T07:15:34;100709.31;;;17.73;60.77
74329;BME280;62749;51.982;5.916;2023-07-02T07:18:03;100725.59;;;17.57;59.30
74329;BME280;62749;51.982;5.916;2023-07-02T07:20:33;100718.06;;;17.51;60.97
74329;BME280;62749;51.982;5.916;2023-07-02T07:23:03;100715.47;;;17.49;60.63
74329;BME280;62749;51.982;5.916;2023-07-02T07:25:32;100729.56;;;17.52;61.47
74329;BME280;62749;51.982;5.916;2023-07-02T07:28:02;100724.69;;;17.45;61.51
74329;BME280;62749;51.982;5.916;2023-07-02T07:30:34;100727.03;;;17.50;62.95
74329;BME280;62749;51.982;5.916;2023-07-02T07:33:03;100731.25;;;17.66;60.18
74329;BME280;62749;51.982;5.916;2023-07-02T07:35:45;100734.81;;;17.77;60.68
74329;BME280;62749;51.982;5.916;2023-07-02T07:38:15;100731.25;;;17.90;61.10
74329;BME280;62749;51.982;5.916;2023-07-02T07:40:44;100741.84;;;17.91;60.65
74329;BME280;62749;51.982;5.916;2023-07-02T07:43:14;100736.50;;;17.91;61.26
74329;BME280;62749;51.982;5.916;2023-07-02T07:45:46;100742.69;;;17.92;61.52
74329;BME280;62749;51.982;5.916;2023-07-02T07:48:19;100737.31;;;18.05;60.02
74329;BME280;62749;51.982;5.916;2023-07-02T07:50:49;100742.09;;;18.13;60.16
74329;BME280;62749;51.982;5.916;2023-07-02T07:53:18;100738.56;;;18.12;60.41
74329;BME280;62749;51.982;5.916;2023-07-02T07:55:48;100747.50;;;18.24;59.76
74329;BME280;62749;51.982;5.916;2023-07-02T07:58:17;100739.47;;;18.24;60.02
74329;BME280;62749;51.982;5.916;2023-07-02T08:00:49;100735.31;;;18.20;60.41
74329;BME280;62749;51.982;5.916;2023-07-02T08:03:18;100741.88;;;18.27;60.64
74329;BME280;62749;51.982;5.916;2023-07-02T08:05:47;100745.50;;;18.15;59.86
74329;BME280;62749;51.982;5.916;2023-07-02T08:08:17;100745.25;;;18.18;60.27
74329;BME280;62749;51.982;5.916;2023-07-02T08:10:46;100750.38;;;18.21;59.98
74329;BME280;62749;51.982;5.916;2023-07-02T08:13:16;100746.19;;;18.30;59.63
74329;BME280;62749;51.982;5.916;2023-07-02T08:15:45;100734.38;;;18.32;59.50
74329;BME280;62749;51.982;5.916;2023-07-02T08:18:17;100752.91;;;18.47;58.33
74329;BME280;62749;51.982;5.916;2023-07-02T08:20:47;100749.91;;;18.63;58.22
74329;BME280;62749;51.982;5.916;2023-07-02T08:23:16;100758.59;;;18.78;56.15
74329;BME280;62749;51.982;5.916;2023-07-02T08:25:45;100748.72;;;18.78;54.31
74329;BME280;62749;51.982;5.916;2023-07-02T08:28:23;100765.03;;;18.86;53.61
74329;BME280;62749;51.982;5.916;2023-07-02T08:30:52;100754.50;;;18.96;53.15
74329;BME280;62749;51.982;5.916;2023-07-02T08:33:24;100773.84;;;19.11;53.21
74329;BME280;62749;51.982;5.916;2023-07-02T08:35:53;100764.38;;;18.96;52.64
74329;BME280;62749;51.982;5.916;2023-07-02T08:38:23;100764.44;;;18.83;53.26
74329;BME280;62749;51.982;5.916;2023-07-02T08:40:53;100763.28;;;18.63;52.32
74329;BME280;62749;51.982;5.916;2023-07-02T08:43:25;100771.91;;;18.55;53.25
74329;BME280;62749;51.982;5.916;2023-07-02T08:45:56;100774.16;;;18.37;53.64
74329;BME280;62749;51.982;5.916;2023-07-02T08:48:28;100770.66;;;18.48;53.68
74329;BME280;62749;51.982;5.916;2023-07-02T08:50:58;100776.41;;;18.54;54.25
74329;BME280;62749;51.982;5.916;2023-07-02T08:53:27;100788.66;;;18.81;54.06
74329;BME280;62749;51.982;5.916;2023-07-02T08:56:00;100785.47;;;18.76;53.91
74329;BME280;62749;51.982;5.916;2023-07-02T08:58:30;100785.00;;;18.82;52.66
74329;BME280;62749;51.982;5.916;2023-07-02T09:01:06;100785.09;;;18.81;53.67
74329;BME280;62749;51.982;5.916;2023-07-02T09:03:40;100792.44;;;18.90;53.26
74329;BME280;62749;51.982;5.916;2023-07-02T09:06:11;100779.47;;;18.97;51.98
74329;BME280;62749;51.982;5.916;2023-07-02T09:08:40;100783.41;;;18.91;53.40
74329;BME280;62749;51.982;5.916;2023-07-02T09:11:11;100781.84;;;18.89;53.28
74329;BME280;62749;51.982;5.916;2023-07-02T09:13:45;100785.56;;;18.63;51.81
74329;BME280;62749;51.982;5.916;2023-07-02T09:16:24;100790.75;;;18.53;52.78
74329;BME280;62749;51.982;5.916;2023-07-02T09:19:05;100796.50;;;18.60;52.77
74329;BME280;62749;51.982;5.916;2023-07-02T09:21:40;100791.41;;;18.80;52.25
74329;BME280;62749;51.982;5.916;2023-07-02T09:24:15;100788.97;;;19.24;51.62
74329;BME280;62749;51.982;5.916;2023-07-02T09:26:46;100780.69;;;19.61;50.71
74329;BME280;62749;51.982;5.916;2023-07-02T09:29:18;100784.47;;;19.47;47.21
74329;BME280;62749;51.982;5.916;2023-07-02T09:31:49;100790.78;;;19.23;45.98
74329;BME280;62749;51.982;5.916;2023-07-02T09:34:27;100786.66;;;19.19;46.52
74329;BME280;62749;51.982;5.916;2023-07-02T09:36:58;100780.31;;;19.31;46.60
74329;BME280;62749;51.982;5.916;2023-07-02T09:39:29;100792.50;;;19.24;45.73
74329;BME280;62749;51.982;5.916;2023-07-02T09:42:01;100791.41;;;19.38;45.47
74329;BME280;62749;51.982;5.916;2023-07-02T09:44:33;100785.19;;;19.49;44.17
74329;BME280;62749;51.982;5.916;2023-07-02T09:47:05;100783.72;;;19.45;43.35
74329;BME280;62749;51.982;5.916;2023-07-02T09:49:40;100788.09;;;19.46;43.85
74329;BME280;62749;51.982;5.916;2023-07-02T09:52:11;100793.13;;;19.62;41.36
74329;BME280;62749;51.982;5.916;2023-07-02T09:54:41;100783.72;;;19.79;41.17
74329;BME280;62749;51.982;5.916;2023-07-02T09:57:11;100784.69;;;19.89;40.89
74329;BME280;62749;51.982;5.916;2023-07-02T09:59:41;100794.16;;;20.05;42.46
74329;BME280;62749;51.982;5.916;2023-07-02T10:02:12;100788.78;;;20.05;41.72
74329;BME280;62749;51.982;5.916;2023-07-02T10:04:46;100789.97;;;20.12;42.35
74329;BME280;62749;51.982;5.916;2023-07-02T10:07:28;100790.50;;;20.06;42.10
74329;BME280;62749;51.982;5.916;2023-07-02T10:09:58;100794.28;;;19.92;41.94
74329;BME280;62749;51.982;5.916;2023-07-02T10:12:29;100798.78;;;20.03;42.91
74329;BME280;62749;51.982;5.916;2023-07-02T10:14:59;100802.19;;;20.05;42.35
74329;BME280;62749;51.982;5.916;2023-07-02T10:17:31;100798.75;;;20.14;41.35
74329;BME280;62749;51.982;5.916;2023-07-02T10:20:05;100800.16;;;20.30;41.55
74329;BME280;62749;51.982;5.916;2023-07-02T10:22:42;100806.03;;;20.23;39.70
74329;BME280;62749;51.982;5.916;2023-07-02T10:25:11;100792.56;;;20.35;39.51
74329;BME280;62749;51.982;5.916;2023-07-02T10:27:42;100797.03;;;20.46;39.90
74329;BME280;62749;51.982;5.916;2023-07-02T10:30:12;100793.53;;;20.34;39.36
74329;BME280;62749;51.982;5.916;2023-07-02T10:32:41;100793.00;;;20.51;40.45
74329;BME280;62749;51.982;5.916;2023-07-02T10:35:17;100795.84;;;20.71;40.60
74329;BME280;62749;51.982;5.916;2023-07-02T10:37:47;100812.63;;;20.84;39.90
74329;BME280;62749;51.982;5.916;2023-07-02T10:40:16;100813.31;;;20.87;39.03
74329;BME280;62749;51.982;5.916;2023-07-02T10:42:48;100823.56;;;20.93;38.73
74329;BME280;62749;51.982;5.916;2023-07-02T10:45:19;100800.84;;;20.76;38.99
74329;BME280;62749;51.982;5.916;2023-07-02T10:47:49;100811.63;;;20.85;38.11
74329;BME280;62749;51.982;5.916;2023-07-02T10:50:21;100806.97;;;20.88;38.19
74329;BME280;62749;51.982;5.916;2023-07-02T10:52:53;100797.69;;;20.92;39.25
74329;BME280;62749;51.982;5.916;2023-07-02T10:55:24;100808.69;;;20.89;39.96
74329;BME280;62749;51.982;5.916;2023-07-02T10:58:04;100811.03;;;21.03;38.74
74329;BME280;62749;51.982;5.916;2023-07-02T11:00:43;100824.06;;;21.08;39.38
74329;BME280;62749;51.982;5.916;2023-07-02T11:03:16;100810.06;;;21.66;36.76
74329;BME280;62749;51.982;5.916;2023-07-02T11:05:50;100809.81;;;22.69;34.86
74329;BME280;62749;51.982;5.916;2023-07-02T11:08:20;100814.28;;;22.10;36.06
74329;BME280;62749;51.982;5.916;2023-07-02T11:10:51;100820.56;;;22.69;35.93
74329;BME280;62749;51.982;5.916;2023-07-02T11:13:32;100828.78;;;22.48;36.23
74329;BME280;62749;51.982;5.916;2023-07-02T11:16:01;100831.34;;;22.59;35.84
74329;BME280;62749;51.982;5.916;2023-07-02T11:18:31;100818.97;;;22.96;35.37
74329;BME280;62749;51.982;5.916;2023-07-02T11:21:09;100824.44;;;24.54;32.86
74329;BME280;62749;51.982;5.916;2023-07-02T11:23:39;100841.41;;;25.35;30.38
74329;BME280;62749;51.982;5.916;2023-07-02T11:26:08;100839.50;;;24.74;32.24
74329;BME280;62749;51.982;5.916;2023-07-02T11:29:03;100831.25;;;24.76;31.19
74329;BME280;62749;51.982;5.916;2023-07-02T11:31:36;100828.91;;;23.81;31.97
74329;BME280;62749;51.982;5.916;2023-07-02T11:34:12;100842.41;;;24.63;30.54
74329;BME280;62749;51.982;5.916;2023-07-02T11:36:44;100842.81;;;24.50;31.43
74329;BME280;62749;51.982;5.916;2023-07-02T11:39:14;100836.38;;;23.59;32.07
74329;BME280;62749;51.982;5.916;2023-07-02T11:41:45;100833.50;;;23.33;33.03
74329;BME280;62749;51.982;5.916;2023-07-02T11:44:14;100835.97;;;22.87;33.81
74329;BME280;62749;51.982;5.916;2023-07-02T11:46:44;100855.41;;;22.80;33.70
74329;BME280;62749;51.982;5.916;2023-07-02T11:49:14;100836.63;;;23.28;32.57
74329;BME280;62749;51.982;5.916;2023-07-02T11:51:46;100835.13;;;22.96;33.23
74329;BME280;62749;51.982;5.916;2023-07-02T11:54:16;100827.16;;;23.14;32.82
74329;BME280;62749;51.982;5.916;2023-07-02T11:56:45;100833.59;;;22.64;33.59
74329;BME280;62749;51.982;5.916;2023-07-02T11:59:15;100827.59;;;24.85;30.50
74329;BME280;62749;51.982;5.916;2023-07-02T12:01:44;100830.72;;;25.94;28.63
74329;BME280;62749;51.982;5.916;2023-07-02T12:04:13;100836.78;;;26.56;28.22
74329;BME280;62749;51.982;5.916;2023-07-02T12:06:46;100835.00;;;27.37;27.22
74329;BME280;62749;51.982;5.916;2023-07-02T12:09:15;100844.59;;;27.65;26.48
74329;BME280;62749;51.982;5.916;2023-07-02T12:11:45;100840.81;;;25.41;28.66
74329;BME280;62749;51.982;5.916;2023-07-02T12:14:14;100838.41;;;23.85;30.74
74329;BME280;62749;51.982;5.916;2023-07-02T12:16:44;100851.13;;;23.07;32.30
74329;BME280;62749;51.982;5.916;2023-07-02T12:19:13;100848.19;;;23.86;31.53
74329;BME280;62749;51.982;5.916;2023-07-02T12:21:42;100835.47;;;23.40;31.98
74329;BME280;62749;51.982;5.916;2023-07-02T12:24:14;100850.19;;;22.59;32.64
74329;BME280;62749;51.982;5.916;2023-07-02T12:26:43;100843.97;;;23.46;31.97
74329;BME280;62749;51.982;5.916;2023-07-02T12:29:13;100850.13;;;23.08;31.99
74329;BME280;62749;51.982;5.916;2023-07-02T12:31:42;100860.50;;;23.88;30.70
74329;BME280;62749;51.982;5.916;2023-07-02T12:34:11;100860.84;;;24.86;29.84
74329;BME280;62749;51.982;5.916;2023-07-02T12:36:41;100864.00;;;25.52;28.30
74329;BME280;62749;51.982;5.916;2023-07-02T12:39:10;100864.19;;;25.50;28.94
74329;BME280;62749;51.982;5.916;2023-07-02T12:41:48;100863.41;;;25.13;28.60
74329;BME280;62749;51.982;5.916;2023-07-02T12:44:21;100873.78;;;25.45;29.28
74329;BME280;62749;51.982;5.916;2023-07-02T12:46:50;100860.28;;;25.00;28.58
74329;BME280;62749;51.982;5.916;2023-07-02T12:49:20;100856.47;;;25.37;28.49
74329;BME280;62749;51.982;5.916;2023-07-02T12:51:49;100852.69;;;25.91;27.95
74329;BME280;62749;51.982;5.916;2023-07-02T12:54:18;100872.53;;;25.65;28.27
74329;BME280;62749;51.982;5.916;2023-07-02T12:56:50;100865.06;;;24.16;31.44
74329;BME280;62749;51.982;5.916;2023-07-02T12:59:20;100864.66;;;24.57;30.48
74329;BME280;62749;51.982;5.916;2023-07-02T13:01:49;100868.34;;;23.44;31.08
74329;BME280;62749;51.982;5.916;2023-07-02T13:04:19;100856.72;;;23.81;31.52
74329;BME280;62749;51.982;5.916;2023-07-02T13:06:48;100878.94;;;25.11;30.80
74329;BME280;62749;51.982;5.916;2023-07-02T13:09:17;100864.97;;;26.12;28.06
74329;BME280;62749;51.982;5.916;2023-07-02T13:11:47;100867.53;;;25.44;28.73
74329;BME280;62749;51.982;5.916;2023-07-02T13:14:18;100874.75;;;24.91;29.22